createdAt,value
2018-02-06T00:00:26.052Z,1.20
2018-02-06T00:02:53.581Z,1.20
2018-02-06T00:05:22.093Z,1.30
2018-02-06T00:07:49.635Z,1.00
2018-02-06T00:10:18.116Z,1.00
2018-02-06T00:12:45.673Z,1.20
2018-02-06T00:15:13.210Z,1.30
2018-02-06T00:17:40.786Z,1.20
2018-02-06T00:20:08.330Z,1.30
2018-02-06T00:22:48.737Z,1.40
2018-02-06T00:25:16.262Z,1.40
2018-02-06T00:27:43.822Z,1.30
2018-02-06T00:30:11.354Z,1.30
2018-02-06T00:32:38.910Z,1.30
2018-02-06T00:35:06.473Z,1.30
2018-02-06T00:37:35.183Z,1.30
2018-02-06T00:40:02.743Z,1.30
2018-02-06T00:42:30.274Z,1.30
2018-02-06T00:44:57.850Z,1.20
2018-02-06T00:47:25.391Z,1.20
2018-02-06T00:49:52.925Z,1.20
2018-02-06T00:52:21.267Z,1.20
2018-02-06T00:54:48.799Z,1.20
2018-02-06T00:57:16.351Z,1.30
2018-02-06T00:59:43.878Z,1.30
2018-02-06T01:02:11.434Z,1.00
2018-02-06T01:04:38.967Z,1.10
2018-02-06T01:07:06.526Z,1.00
2018-02-06T01:09:34.826Z,0.80
2018-02-06T01:12:03.123Z,1.00
2018-02-06T01:14:31.627Z,1.00
2018-02-06T01:16:59.146Z,1.00
2018-02-06T01:19:26.698Z,1.10
2018-02-06T01:21:54.233Z,1.10
2018-02-06T01:24:21.803Z,1.20
2018-02-06T01:26:49.335Z,1.10
2018-02-06T01:29:16.897Z,1.10
2018-02-06T01:31:45.364Z,1.10
2018-02-06T01:34:12.902Z,1.10
2018-02-06T01:36:40.447Z,1.20
2018-02-06T01:39:08.952Z,1.20
2018-02-06T01:41:36.515Z,1.20
2018-02-06T01:44:04.047Z,1.20
2018-02-06T01:46:33.527Z,1.10
2018-02-06T01:49:01.058Z,1.00
2018-02-06T01:51:28.611Z,1.10
2018-02-06T01:53:56.145Z,1.00
2018-02-06T01:56:23.694Z,1.00
2018-02-06T01:58:51.222Z,1.00
2018-02-06T02:01:28.972Z,1.10
2018-02-06T02:03:57.465Z,1.10
2018-02-06T02:06:24.998Z,1.10
2018-02-06T02:08:52.551Z,1.20
2018-02-06T02:11:20.086Z,1.10
2018-02-06T02:13:47.653Z,0.90
2018-02-06T02:16:15.953Z,0.90
2018-02-06T02:18:43.499Z,0.90
2018-02-06T02:21:11.021Z,0.90
2018-02-06T02:23:38.548Z,0.90
2018-02-06T02:26:06.091Z,0.90
2018-02-06T02:28:33.619Z,0.90
2018-02-06T02:31:01.943Z,1.00
2018-02-06T02:33:29.466Z,1.00
2018-02-06T02:35:57.024Z,0.90
2018-02-06T02:38:24.553Z,1.00
2018-02-06T02:40:52.089Z,1.00
2018-02-06T04:39:04.358Z,0.30
2018-02-06T04:41:31.882Z,0.50
2018-02-06T04:43:59.446Z,0.50
2018-02-06T04:46:28.526Z,0.60
2018-02-06T04:48:56.058Z,0.60
2018-02-06T04:51:23.613Z,0.50
2018-02-06T04:53:51.902Z,0.40
2018-02-06T04:56:19.470Z,0.40
2018-02-06T04:58:46.997Z,0.40
2018-02-06T05:01:15.317Z,0.50
2018-02-06T05:03:42.837Z,0.50
2018-02-06T05:06:12.088Z,0.60
2018-02-06T05:08:41.600Z,0.60
2018-02-06T05:11:09.118Z,0.70
2018-02-06T05:13:36.685Z,0.70
2018-02-06T05:16:04.200Z,0.70
2018-02-06T05:18:31.746Z,0.80
2018-02-06T05:20:59.278Z,0.80
2018-02-06T05:23:26.799Z,0.80
2018-02-06T05:25:56.144Z,0.80
2018-02-06T05:28:23.675Z,0.80
2018-02-06T05:30:51.234Z,0.90
2018-02-06T05:33:18.749Z,0.90
2018-02-06T05:35:46.297Z,0.90
2018-02-06T05:38:14.582Z,1.00
2018-02-06T05:40:42.867Z,0.90
2018-02-06T05:43:10.417Z,0.90
2018-02-06T05:45:37.940Z,0.90
2018-02-06T05:48:05.503Z,1.00
2018-02-06T05:50:33.017Z,1.00
2018-02-06T05:53:00.590Z,1.10
2018-02-06T05:55:28.112Z,1.10
2018-02-06T05:57:56.402Z,1.00
2018-02-06T06:00:23.958Z,1.00
2018-02-06T06:02:52.262Z,0.90
2018-02-06T06:05:19.830Z,0.90
2018-02-06T06:07:47.361Z,0.80
2018-02-06T06:10:15.699Z,0.90
2018-02-06T06:12:43.230Z,0.90
2018-02-06T06:15:11.707Z,1.00
2018-02-06T06:17:39.274Z,1.00
2018-02-06T06:20:06.802Z,1.00
2018-02-06T06:22:36.295Z,1.00
2018-02-06T06:25:03.826Z,0.90
2018-02-06T06:27:31.387Z,0.90
2018-02-06T06:29:58.946Z,0.90
2018-02-06T06:32:26.474Z,0.80
2018-02-06T06:34:54.027Z,0.80
2018-02-06T06:37:21.557Z,0.70
2018-02-06T06:39:49.106Z,0.70
2018-02-06T06:42:17.400Z,0.80
2018-02-06T06:44:44.969Z,0.80
2018-02-06T06:47:12.508Z,0.90
2018-02-06T06:49:40.046Z,0.90
2018-02-06T06:52:09.537Z,0.80
2018-02-06T06:54:37.066Z,0.80
2018-02-06T06:57:04.627Z,0.90
2018-02-06T06:59:33.105Z,0.90
2018-02-06T07:02:00.639Z,0.90
2018-02-06T07:04:28.198Z,0.90
2018-02-06T07:06:55.723Z,0.80
2018-02-06T07:09:23.282Z,0.80
2018-02-06T07:11:50.815Z,0.80
2018-02-06T07:14:19.346Z,0.80
2018-02-06T07:16:46.875Z,0.80
2018-02-06T07:19:14.416Z,0.90
2018-02-06T07:21:41.982Z,0.90
2018-02-06T07:24:10.274Z,0.80
2018-02-06T07:26:37.843Z,0.70
2018-02-06T07:29:05.375Z,0.80
2018-02-06T07:31:32.950Z,0.90
2018-02-06T07:34:00.499Z,0.90
2018-02-06T07:36:28.018Z,0.90
2018-02-06T07:38:55.562Z,0.90
2018-02-06T07:41:23.078Z,1.00
2018-02-06T07:43:50.633Z,1.10
2018-02-06T07:46:18.162Z,1.10
2018-02-06T07:48:45.734Z,1.10
2018-02-06T07:51:13.874Z,1.10
2018-02-06T07:53:41.408Z,1.00
2018-02-06T07:56:10.946Z,1.00
2018-02-06T07:58:38.490Z,0.80
2018-02-06T08:01:06.055Z,1.00
2018-02-06T08:03:33.580Z,1.20
2018-02-06T08:06:01.914Z,1.30
2018-02-06T08:08:29.448Z,1.30
2018-02-06T08:10:56.971Z,1.40
2018-02-06T08:13:24.526Z,1.60
2018-02-06T08:15:52.056Z,1.60
2018-02-06T08:18:19.618Z,1.60
2018-02-06T08:20:47.142Z,1.60
2018-02-06T08:23:14.690Z,1.60
2018-02-06T08:25:42.236Z,1.60
2018-02-06T08:28:09.871Z,1.60
2018-02-06T08:30:39.536Z,1.80
2018-02-06T08:33:07.322Z,1.80
2018-02-06T08:35:35.269Z,2.00
2018-02-06T08:38:02.826Z,2.00
2018-02-06T08:40:30.387Z,1.90
2018-02-06T08:42:57.923Z,1.60
2018-02-06T08:45:25.451Z,1.50
2018-02-06T08:47:53.014Z,1.60
2018-02-06T08:50:20.548Z,2.10
2018-02-06T08:52:48.113Z,2.40
2018-02-06T08:55:15.654Z,1.90
2018-02-06T08:57:43.219Z,2.20
2018-02-06T09:00:10.753Z,2.50
2018-02-06T09:02:38.276Z,2.70
2018-02-06T09:05:06.136Z,2.90
2018-02-06T09:07:33.659Z,3.10
2018-02-06T09:10:01.207Z,3.20
2018-02-06T09:12:28.783Z,3.40
2018-02-06T09:14:58.282Z,3.50
2018-02-06T09:17:25.804Z,3.60
2018-02-06T09:19:53.350Z,3.80
2018-02-06T09:22:21.666Z,3.60
2018-02-06T09:24:49.283Z,3.60
2018-02-06T09:27:17.606Z,3.80
2018-02-06T09:29:45.133Z,3.80
2018-02-06T09:32:12.682Z,3.90
2018-02-06T09:34:40.214Z,3.80
2018-02-06T09:37:07.747Z,3.60
2018-02-06T09:39:35.322Z,3.60
2018-02-06T09:42:02.922Z,3.50
2018-02-06T09:44:31.244Z,3.50
2018-02-06T09:46:59.758Z,3.50
2018-02-06T09:49:27.285Z,3.70
2018-02-06T09:51:54.826Z,3.70
2018-02-06T09:54:22.356Z,4.10
2018-02-06T09:56:50.665Z,3.60
2018-02-06T09:59:18.198Z,3.60
2018-02-06T10:01:45.863Z,4.10
2018-02-06T10:04:13.385Z,4.30
2018-02-06T10:06:40.931Z,4.40
2018-02-06T10:09:08.484Z,4.20
2018-02-06T10:11:36.012Z,3.90
2018-02-06T10:14:05.809Z,3.50
2018-02-06T10:16:33.356Z,3.60
2018-02-06T10:19:03.642Z,3.20
2018-02-06T10:21:32.133Z,3.20
2018-02-06T10:24:00.478Z,3.50
2018-02-06T10:26:28.026Z,3.50
2018-02-06T10:28:55.547Z,3.90
2018-02-06T10:31:23.137Z,4.40
2018-02-06T10:33:50.659Z,4.40
2018-02-06T10:36:20.150Z,4.40
2018-02-06T10:38:48.439Z,5.00
2018-02-06T10:41:15.963Z,5.00
2018-02-06T10:43:44.195Z,5.00
2018-02-06T10:46:11.885Z,5.00
2018-02-06T10:48:39.438Z,5.30
2018-02-06T10:51:07.034Z,5.60
2018-02-06T10:53:34.585Z,5.60
2018-02-06T10:56:02.121Z,5.40
2018-02-06T10:58:29.651Z,5.40
2018-02-06T11:00:57.203Z,5.50
2018-02-06T11:03:24.726Z,5.40
2018-02-06T11:05:53.050Z,5.20
2018-02-06T11:08:20.573Z,5.20
2018-02-06T11:10:49.112Z,5.50
2018-02-06T11:13:16.669Z,5.50
2018-02-06T11:15:45.866Z,5.10
2018-02-06T11:18:13.393Z,5.10
2018-02-06T11:20:40.921Z,5.40
2018-02-06T11:23:08.471Z,5.40
2018-02-06T11:25:35.990Z,5.40
2018-02-06T11:28:03.588Z,5.20
2018-02-06T11:30:31.121Z,4.80
2018-02-06T11:32:58.649Z,4.40
2018-02-06T11:35:26.190Z,4.50
2018-02-06T11:37:55.821Z,4.80
2018-02-06T11:40:23.549Z,4.70
2018-02-06T11:42:51.066Z,5.10
2018-02-06T11:45:18.700Z,5.20
2018-02-06T11:47:46.286Z,4.80
2018-02-06T11:50:13.837Z,4.70
2018-02-06T11:52:41.363Z,4.90
2018-02-06T11:55:09.645Z,4.80
2018-02-06T11:57:39.063Z,4.80
2018-02-06T12:00:06.576Z,5.20
2018-02-06T12:02:34.130Z,5.60
2018-02-06T12:05:02.417Z,5.30
2018-02-06T12:07:30.031Z,5.30
2018-02-06T12:09:57.562Z,5.10
2018-02-06T12:12:25.847Z,4.40
2018-02-06T12:14:53.393Z,4.40
2018-02-06T12:17:21.694Z,4.60
2018-02-06T12:19:49.257Z,4.50
2018-02-06T12:22:16.804Z,5.00
2018-02-06T12:24:44.382Z,5.50
2018-02-06T12:27:11.925Z,5.50
2018-02-06T12:29:39.474Z,5.60
2018-02-06T12:32:06.998Z,5.50
2018-02-06T12:34:34.531Z,5.60
2018-02-06T12:37:02.078Z,5.90
2018-02-06T12:39:29.606Z,6.20
2018-02-06T12:41:57.179Z,5.70
2018-02-06T12:44:24.689Z,5.20
2018-02-06T12:46:53.376Z,5.70
2018-02-06T12:49:23.733Z,5.70
2018-02-06T12:51:51.324Z,5.50
2018-02-06T12:54:18.845Z,5.60
2018-02-06T12:56:47.127Z,6.10
2018-02-06T12:59:14.682Z,6.00
2018-02-06T13:01:42.201Z,6.30
2018-02-06T13:04:09.740Z,6.40
2018-02-06T13:06:38.321Z,6.60
2018-02-06T13:09:05.869Z,6.80
2018-02-06T13:11:33.395Z,6.90
2018-02-06T13:14:00.913Z,7.00
2018-02-06T13:16:28.466Z,7.00
2018-02-06T13:18:56.006Z,7.00
2018-02-06T13:21:24.317Z,6.50
2018-02-06T13:23:51.837Z,6.50
2018-02-06T13:26:19.394Z,6.40
2018-02-06T13:28:46.918Z,6.60
2018-02-06T13:31:14.439Z,6.90
2018-02-06T13:33:41.973Z,6.30
2018-02-06T13:36:09.488Z,6.00
2018-02-06T13:38:37.803Z,6.80
2018-02-06T13:41:05.364Z,6.80
2018-02-06T13:43:32.923Z,7.00
2018-02-06T13:46:00.450Z,6.80
2018-02-06T13:48:27.973Z,7.10
2018-02-06T13:50:55.522Z,7.00
2018-02-06T13:53:23.046Z,6.30
2018-02-06T13:55:50.626Z,6.70
2018-02-06T13:58:18.145Z,7.20
2018-02-06T14:00:46.459Z,7.10
2018-02-06T14:03:14.955Z,7.10
2018-02-06T14:05:43.199Z,7.60
2018-02-06T14:08:12.054Z,7.70
2018-02-06T14:10:44.942Z,7.70
2018-02-06T14:13:12.514Z,7.90
2018-02-06T14:15:40.994Z,8.00
2018-02-06T14:18:08.539Z,8.10
2018-02-06T14:20:36.825Z,8.10
2018-02-06T14:23:04.389Z,8.10
2018-02-06T14:25:31.914Z,8.20
2018-02-06T14:27:59.440Z,8.30
2018-02-06T14:30:27.010Z,8.30
2018-02-06T14:32:54.535Z,8.30
2018-02-06T14:35:22.085Z,8.50
2018-02-06T14:37:50.590Z,8.10
2018-02-06T14:40:18.142Z,7.90
2018-02-06T14:42:45.669Z,8.00
2018-02-06T14:45:14.145Z,7.90
2018-02-06T14:47:41.666Z,8.00
2018-02-06T14:50:09.190Z,8.20
2018-02-06T14:52:36.735Z,8.20
2018-02-06T14:55:04.254Z,8.30
2018-02-06T14:57:33.760Z,8.30
2018-02-06T15:00:01.311Z,8.10
2018-02-06T15:02:28.927Z,8.00
2018-02-06T15:04:56.464Z,7.80
2018-02-06T15:07:24.798Z,7.30
2018-02-06T15:09:52.315Z,7.30
2018-02-06T15:12:19.881Z,7.30
2018-02-06T15:14:47.406Z,7.10
2018-02-06T15:17:15.000Z,6.90
2018-02-06T15:19:42.562Z,6.70
2018-02-06T15:22:10.085Z,6.70
2018-02-06T15:24:37.667Z,6.50
2018-02-06T15:27:05.204Z,6.40
2018-02-06T15:29:33.514Z,6.00
2018-02-06T15:32:01.034Z,6.10
2018-02-06T15:34:28.550Z,5.90
2018-02-06T15:36:56.098Z,5.90
2018-02-06T15:39:24.595Z,5.80
2018-02-06T15:41:52.150Z,5.80
2018-02-06T15:44:19.888Z,5.70
2018-02-06T15:46:47.462Z,5.60
2018-02-06T15:49:14.986Z,5.50
2018-02-06T15:51:43.293Z,5.30
2018-02-06T15:54:10.823Z,5.30
2018-02-06T15:56:39.132Z,4.90
2018-02-06T15:59:06.684Z,4.90
2018-02-06T16:01:34.250Z,4.80
2018-02-06T16:04:01.810Z,4.80
2018-02-06T16:06:29.347Z,4.80
2018-02-06T16:08:56.886Z,4.80
2018-02-06T16:11:24.406Z,4.70
2018-02-06T16:13:51.975Z,4.60
2018-02-06T16:16:19.506Z,4.40
2018-02-06T16:18:47.065Z,4.30
2018-02-06T16:21:14.612Z,4.40
2018-02-06T16:23:42.125Z,4.40
2018-02-06T16:26:09.726Z,4.30
2018-02-06T16:28:38.186Z,4.30
2018-02-06T16:31:08.460Z,4.20
2018-02-06T16:33:35.980Z,4.20
2018-02-06T16:36:03.545Z,4.10
2018-02-06T16:38:31.085Z,4.00
2018-02-06T16:40:58.636Z,3.80
2018-02-06T16:43:26.182Z,3.70
2018-02-06T16:45:53.714Z,3.60
2018-02-06T16:48:21.258Z,3.50
2018-02-06T16:50:48.789Z,3.40
2018-02-06T16:53:16.370Z,3.30
2018-02-06T16:55:43.887Z,3.30
2018-02-06T16:58:11.438Z,3.20
2018-02-06T17:00:38.978Z,3.00
2018-02-06T17:03:06.513Z,3.00
2018-02-06T17:05:35.186Z,2.90
2018-02-06T17:08:02.713Z,2.80
2018-02-06T17:10:31.041Z,2.70
2018-02-06T17:12:58.594Z,2.70
2018-02-06T17:15:26.153Z,2.70
2018-02-06T17:17:53.702Z,2.60
2018-02-06T17:20:21.226Z,2.50
2018-02-06T17:22:48.784Z,2.60
2018-02-06T17:25:17.359Z,2.50
2018-02-06T17:27:45.002Z,2.40
2018-02-06T17:30:13.501Z,2.30
2018-02-06T17:32:41.133Z,2.30
2018-02-06T17:35:08.682Z,2.20
2018-02-06T17:37:36.272Z,2.20
2018-02-06T17:40:03.807Z,2.10
2018-02-06T17:42:31.337Z,2.00
2018-02-06T17:44:58.916Z,2.10
2018-02-06T17:47:26.438Z,2.10
2018-02-06T17:49:54.020Z,2.20
2018-02-06T17:52:21.546Z,2.10
2018-02-06T17:54:49.154Z,2.20
2018-02-06T17:57:17.720Z,2.10
2018-02-06T17:59:45.311Z,2.00
2018-02-06T18:02:12.909Z,2.00
2018-02-06T18:04:40.532Z,2.00
2018-02-06T18:07:08.169Z,2.00
2018-02-06T18:09:35.850Z,1.90
2018-02-06T18:12:03.462Z,1.80
2018-02-06T18:14:30.986Z,1.90
2018-02-06T18:16:58.628Z,1.70
2018-02-06T18:19:26.166Z,1.60
2018-02-06T18:21:53.702Z,1.70
2018-02-06T18:24:21.253Z,1.60
2018-02-06T18:26:48.783Z,1.70
2018-02-06T18:29:17.122Z,1.70
2018-02-06T18:31:45.628Z,1.70
2018-02-06T18:34:13.252Z,1.70
2018-02-06T18:36:40.782Z,1.60
2018-02-06T18:39:08.314Z,1.70
2018-02-06T18:41:36.634Z,1.70
2018-02-06T18:44:04.184Z,1.70
2018-02-06T18:46:31.751Z,1.60
2018-02-06T18:48:59.273Z,1.60
2018-02-06T18:51:26.831Z,1.40
2018-02-06T18:53:54.456Z,1.40
2018-02-06T18:56:21.988Z,1.40
2018-02-06T18:58:51.178Z,1.40
2018-02-06T19:01:18.741Z,1.40
2018-02-06T19:03:46.367Z,1.40
2018-02-06T19:06:16.824Z,1.40
2018-02-06T19:08:44.397Z,1.40
2018-02-06T19:11:11.957Z,1.30
2018-02-06T19:13:39.693Z,1.30
2018-02-06T19:16:08.101Z,1.20
2018-02-06T19:18:35.662Z,1.20
2018-02-06T19:21:03.342Z,1.20
2018-02-06T19:23:30.914Z,1.20
2018-02-06T19:25:58.557Z,1.20
2018-02-06T19:28:26.155Z,1.10
2018-02-06T19:30:53.684Z,1.10
2018-02-06T19:33:21.906Z,1.10
2018-02-06T19:35:49.579Z,1.00
2018-02-06T19:38:17.162Z,1.00
2018-02-06T19:40:44.732Z,1.00
2018-02-06T19:43:12.304Z,1.00
2018-02-06T19:45:39.931Z,1.00
2018-02-06T19:48:08.193Z,0.90
2018-02-06T19:50:35.718Z,0.90
2018-02-06T19:53:03.283Z,0.90
2018-02-06T19:55:30.855Z,0.80
2018-02-06T19:57:59.178Z,0.80
2018-02-06T20:00:26.703Z,0.80
2018-02-06T20:02:54.254Z,0.80
2018-02-06T20:05:22.549Z,0.80
2018-02-06T20:07:50.180Z,0.80
2018-02-06T20:10:17.793Z,0.80
2018-02-06T20:12:46.270Z,0.90
2018-02-06T20:15:13.830Z,0.90
2018-02-06T20:17:41.407Z,0.80
2018-02-06T20:20:09.887Z,0.80
2018-02-06T20:22:37.442Z,0.80
2018-02-06T20:25:04.976Z,0.80
2018-02-06T20:27:32.975Z,0.90
2018-02-06T20:30:00.504Z,0.90
2018-02-06T20:32:28.031Z,0.90
2018-02-06T20:34:56.361Z,1.00
2018-02-06T20:37:23.902Z,1.00
2018-02-06T20:39:51.449Z,1.00
2018-02-06T20:42:18.977Z,0.90
2018-02-06T20:44:46.584Z,0.80
2018-02-06T20:47:14.115Z,0.80
2018-02-06T20:49:41.649Z,0.80
2018-02-06T20:52:10.173Z,0.80
2018-02-06T20:54:37.698Z,0.70
2018-02-06T20:57:05.291Z,0.80
2018-02-06T20:59:32.821Z,0.80
2018-02-06T21:02:00.353Z,0.70
2018-02-06T21:04:27.922Z,0.80
2018-02-06T21:06:55.494Z,0.80
2018-02-06T21:09:23.829Z,0.80
2018-02-06T21:11:52.338Z,0.80
2018-02-06T21:14:21.844Z,0.90
2018-02-06T21:16:50.158Z,0.90
2018-02-06T21:19:18.643Z,0.90
2018-02-06T21:21:46.198Z,0.90
2018-02-06T21:24:13.778Z,0.90
2018-02-06T21:26:41.295Z,1.00
2018-02-06T21:29:09.595Z,1.10
2018-02-06T21:31:37.121Z,1.10
2018-02-06T21:34:04.674Z,1.10
2018-02-06T21:36:32.203Z,1.20
2018-02-06T21:38:59.720Z,1.20
2018-02-06T21:41:28.205Z,1.20
2018-02-06T21:43:55.727Z,1.30
2018-02-06T21:46:24.310Z,1.30
2018-02-06T21:48:51.839Z,1.40
2018-02-06T21:51:19.394Z,1.30
2018-02-06T21:53:46.944Z,1.40
2018-02-06T21:56:14.475Z,1.40
2018-02-06T21:58:43.995Z,1.50
2018-02-06T22:01:11.518Z,1.50
2018-02-06T22:03:39.846Z,1.50
2018-02-06T22:06:07.373Z,1.50
2018-02-06T22:08:35.033Z,1.60
2018-02-06T22:11:04.493Z,1.60
2018-02-06T22:13:34.730Z,1.70
2018-02-06T22:16:02.294Z,1.70
2018-02-06T22:18:30.801Z,1.70
2018-02-06T22:20:58.413Z,1.60
2018-02-06T22:23:25.938Z,1.80
2018-02-06T22:25:53.466Z,1.80
2018-02-06T22:28:21.036Z,1.80
2018-02-06T22:30:48.569Z,1.80
2018-02-06T22:33:16.126Z,1.80
2018-02-06T22:35:44.606Z,1.90
2018-02-06T22:38:12.891Z,1.90
2018-02-06T22:40:41.219Z,2.00
2018-02-06T22:43:08.761Z,2.00
2018-02-06T22:45:37.406Z,2.00
2018-02-06T22:48:05.726Z,2.20
2018-02-06T22:50:33.258Z,2.20
2018-02-06T22:53:00.809Z,2.20
2018-02-06T22:55:28.460Z,2.20
2018-02-06T22:57:56.017Z,2.20
2018-02-06T23:00:25.465Z,2.20
2018-02-06T23:02:52.998Z,2.20
2018-02-06T23:05:22.286Z,2.30
2018-02-06T23:07:50.769Z,2.30
2018-02-06T23:10:19.093Z,2.30
2018-02-06T23:12:46.617Z,2.20
2018-02-06T23:15:16.909Z,2.20
2018-02-06T23:17:44.433Z,2.20
2018-02-06T23:20:11.971Z,2.30
2018-02-06T23:22:39.527Z,2.30
2018-02-06T23:25:08.037Z,2.30
2018-02-06T23:27:35.621Z,2.30
2018-02-06T23:30:03.154Z,2.20
2018-02-06T23:32:30.682Z,2.30
2018-02-06T23:34:58.240Z,2.30
2018-02-06T23:37:25.762Z,2.30
2018-02-06T23:39:53.321Z,2.40
2018-02-06T23:42:20.846Z,2.40
2018-02-06T23:44:48.390Z,2.40
2018-02-06T23:47:15.966Z,2.40
2018-02-06T23:49:43.491Z,2.30
2018-02-06T23:52:13.274Z,2.40
2018-02-06T23:54:40.809Z,2.40
2018-02-06T23:57:08.332Z,2.30
2018-02-06T23:59:36.846Z,2.40
